createdAt,value
2023-02-15T00:01:51.124Z,19.27
2023-02-15T00:04:21.226Z,18.53
2023-02-15T00:06:50.604Z,20.13
2023-02-15T00:09:18.534Z,19.23
2023-02-15T00:11:51.108Z,20.20
2023-02-15T00:14:20.838Z,20.20
2023-02-15T00:16:49.636Z,18.80
2023-02-15T00:19:19.257Z,19.53
2023-02-15T00:21:47.680Z,18.47
2023-02-15T00:24:18.227Z,20.80
2023-02-15T00:26:47.054Z,18.67
2023-02-15T00:29:16.259Z,20.07
2023-02-15T00:31:44.367Z,19.60
2023-02-15T00:34:14.662Z,19.13
2023-02-15T00:36:42.440Z,18.70
2023-02-15T00:39:10.779Z,18.73
2023-02-15T00:41:40.446Z,20.80
2023-02-15T00:44:09.516Z,21.07
2023-02-15T00:46:37.848Z,20.67
2023-02-15T00:49:06.721Z,18.70
2023-02-15T00:51:34.779Z,21.60
2023-02-15T00:54:02.904Z,21.73
2023-02-15T00:56:30.882Z,19.90
2023-02-15T00:58:59.967Z,21.17
2023-02-15T01:01:27.791Z,19.70
2023-02-15T01:03:55.779Z,21.27
2023-02-15T01:06:23.562Z,20.73
2023-02-15T01:08:51.296Z,21.13
2023-02-15T01:11:23.140Z,19.03
2023-02-15T01:13:51.857Z,19.73
2023-02-15T01:16:21.581Z,19.67
2023-02-15T01:18:49.500Z,20.60
2023-02-15T01:21:19.918Z,20.37
2023-02-15T01:23:47.925Z,20.03
2023-02-15T01:26:16.327Z,22.00
2023-02-15T01:28:44.042Z,20.87
2023-02-15T01:31:14.024Z,21.27
2023-02-15T01:33:43.763Z,21.50
2023-02-15T01:36:11.938Z,22.20
2023-02-15T01:38:40.813Z,20.67
2023-02-15T01:41:24.855Z,20.70
2023-02-15T01:43:55.040Z,20.73
2023-02-15T01:46:26.980Z,20.57
2023-02-15T01:49:01.665Z,20.73
2023-02-15T01:51:32.207Z,20.43
2023-02-15T01:54:03.780Z,19.93
2023-02-15T01:56:35.483Z,22.77
2023-02-15T01:59:09.864Z,21.23
2023-02-15T02:01:37.924Z,21.17
2023-02-15T02:04:15.510Z,23.20
2023-02-15T02:06:43.488Z,20.40
2023-02-15T02:09:11.542Z,22.57
2023-02-15T02:11:41.181Z,21.97
2023-02-15T02:14:09.314Z,20.77
2023-02-15T02:16:44.643Z,21.20
2023-02-15T02:19:48.687Z,22.30
2023-02-15T02:22:35.775Z,20.93
2023-02-15T02:25:34.646Z,22.73
2023-02-15T02:28:16.292Z,23.43
2023-02-15T02:31:13.170Z,21.40
2023-02-15T02:33:56.151Z,22.43
2023-02-15T02:36:31.366Z,22.93
2023-02-15T02:39:12.130Z,22.83
2023-02-15T02:41:52.215Z,23.90
2023-02-15T02:44:24.391Z,23.20
2023-02-15T02:46:55.512Z,23.80
2023-02-15T02:49:36.963Z,20.33
2023-02-15T02:52:07.727Z,22.00
2023-02-15T02:54:37.569Z,22.10
2023-02-15T02:57:10.085Z,23.53
2023-02-15T02:59:42.677Z,21.90
2023-02-15T03:02:14.316Z,22.83
2023-02-15T03:04:48.427Z,22.40
2023-02-15T03:07:22.926Z,22.33
2023-02-15T03:09:53.618Z,22.27
2023-02-15T03:12:24.205Z,23.47
2023-02-15T03:14:55.521Z,22.23
2023-02-15T03:17:25.804Z,21.70
2023-02-15T03:19:59.573Z,21.63
2023-02-15T03:22:31.117Z,22.70
2023-02-15T03:25:02.730Z,22.20
2023-02-15T03:27:35.403Z,22.23
2023-02-15T03:30:05.659Z,23.60
2023-02-15T03:32:36.478Z,21.40
2023-02-15T03:35:06.358Z,23.47
2023-02-15T03:37:38.979Z,23.20
2023-02-15T03:40:31.167Z,20.47
2023-02-15T03:43:04.874Z,23.57
2023-02-15T03:45:35.087Z,22.60
2023-02-15T03:48:05.118Z,25.17
2023-02-15T03:50:55.516Z,22.57
2023-02-15T03:53:27.293Z,21.70
2023-02-15T03:55:56.958Z,23.80
2023-02-15T03:58:42.005Z,23.17
2023-02-15T04:01:32.967Z,21.57
2023-02-15T04:04:06.288Z,23.33
2023-02-15T04:06:35.712Z,21.93
2023-02-15T04:09:23.023Z,22.57
2023-02-15T04:11:50.723Z,22.57
2023-02-15T04:14:36.151Z,21.80
2023-02-15T04:17:07.295Z,23.07
2023-02-15T04:19:52.784Z,22.27
2023-02-15T04:22:39.836Z,21.97
2023-02-15T04:25:14.462Z,24.33
2023-02-15T04:27:44.073Z,22.00
2023-02-15T04:30:13.720Z,23.70
2023-02-15T04:32:41.733Z,22.57
2023-02-15T04:35:10.433Z,23.73
2023-02-15T04:37:40.178Z,22.77
2023-02-15T04:40:09.728Z,23.80
2023-02-15T04:42:37.627Z,34.30
2023-02-15T04:45:05.732Z,30.53
2023-02-15T04:47:33.586Z,29.20
2023-02-15T04:50:01.438Z,23.93
2023-02-15T04:52:29.202Z,25.63
2023-02-15T04:54:58.281Z,21.83
2023-02-15T04:57:26.039Z,22.67
2023-02-15T04:59:53.790Z,22.73
2023-02-15T05:02:21.530Z,23.23
2023-02-15T05:04:49.246Z,23.13
2023-02-15T05:07:16.946Z,23.17
2023-02-15T05:09:44.668Z,23.80
2023-02-15T05:12:13.796Z,23.23
2023-02-15T05:14:41.528Z,22.43
2023-02-15T05:17:09.270Z,23.37
2023-02-15T05:19:36.984Z,23.00
2023-02-15T05:22:04.783Z,22.37
2023-02-15T05:24:50.206Z,23.10
2023-02-15T05:27:36.886Z,21.87
2023-02-15T05:30:05.121Z,22.80
2023-02-15T05:32:33.031Z,22.43
2023-02-15T05:35:00.803Z,21.43
2023-02-15T05:37:28.504Z,26.57
2023-02-15T05:39:56.196Z,25.30
2023-02-15T05:42:25.276Z,23.40
2023-02-15T05:44:53.020Z,22.80
2023-02-15T05:47:20.725Z,23.17
2023-02-15T05:49:48.469Z,22.50
2023-02-15T05:52:16.180Z,20.97
2023-02-15T05:54:43.908Z,22.50
2023-02-15T05:57:11.675Z,22.07
2023-02-15T05:59:40.760Z,21.67
2023-02-15T06:02:08.499Z,22.57
2023-02-15T06:04:36.253Z,22.40
2023-02-15T06:07:03.989Z,21.87
2023-02-15T06:09:31.716Z,19.40
2023-02-15T06:11:59.470Z,20.07
2023-02-15T06:14:27.221Z,21.17
2023-02-15T06:16:56.330Z,21.30
2023-02-15T06:19:24.350Z,20.63
2023-02-15T06:21:52.074Z,19.80
2023-02-15T06:24:19.760Z,21.33
2023-02-15T06:26:47.555Z,21.13
2023-02-15T06:29:15.329Z,22.37
2023-02-15T06:31:43.250Z,22.57
2023-02-15T06:34:12.441Z,23.60
2023-02-15T06:36:40.199Z,24.20
2023-02-15T06:39:08.167Z,21.77
2023-02-15T06:41:35.895Z,20.73
2023-02-15T06:44:03.600Z,22.10
2023-02-15T06:46:31.370Z,19.10
2023-02-15T06:48:59.052Z,22.50
2023-02-15T06:51:28.275Z,17.50
2023-02-15T06:53:55.993Z,18.90
2023-02-15T06:56:23.683Z,20.60
2023-02-15T06:58:51.417Z,17.03
2023-02-15T07:01:19.158Z,22.40
2023-02-15T07:03:47.583Z,21.03
2023-02-15T07:06:15.421Z,20.23
2023-02-15T07:08:44.758Z,22.53
2023-02-15T07:11:29.901Z,20.50
2023-02-15T07:13:57.798Z,21.80
2023-02-15T07:16:25.727Z,22.17
2023-02-15T07:18:53.511Z,23.87
2023-02-15T07:21:21.282Z,19.37
2023-02-15T07:23:50.387Z,22.20
2023-02-15T07:26:18.116Z,19.43
2023-02-15T07:28:45.926Z,20.97
2023-02-15T07:31:13.674Z,20.00
2023-02-15T07:33:41.442Z,23.37
2023-02-15T07:36:12.442Z,22.53
2023-02-15T07:38:42.914Z,21.90
2023-02-15T07:41:14.215Z,21.87
2023-02-15T07:43:44.268Z,22.23
2023-02-15T07:46:14.103Z,22.60
2023-02-15T07:48:42.625Z,22.93
2023-02-15T07:51:12.838Z,22.40
2023-02-15T07:53:40.833Z,22.50
2023-02-15T07:56:13.520Z,22.17
2023-02-15T07:58:53.400Z,21.50
2023-02-15T08:01:23.358Z,22.93
2023-02-15T08:03:51.846Z,20.73
2023-02-15T08:06:20.022Z,22.23
2023-02-15T08:08:47.777Z,21.53
2023-02-15T08:11:30.243Z,22.13
2023-02-15T08:14:00.967Z,17.33
2023-02-15T08:16:32.242Z,23.30
2023-02-15T08:19:01.886Z,22.20
2023-02-15T08:21:31.402Z,23.07
2023-02-15T08:24:00.149Z,24.47
2023-02-15T08:26:30.743Z,24.13
2023-02-15T08:28:59.498Z,22.47
2023-02-15T08:31:28.078Z,25.30
2023-02-15T08:33:57.943Z,25.20
2023-02-15T08:36:28.078Z,23.83
2023-02-15T08:38:55.800Z,23.27
2023-02-15T08:41:25.571Z,22.03
2023-02-15T08:43:57.399Z,22.10
2023-02-15T08:46:27.981Z,19.97
2023-02-15T08:48:56.238Z,19.87
2023-02-15T08:51:26.526Z,19.57
2023-02-15T08:53:56.372Z,17.77
2023-02-15T08:56:26.853Z,17.37
2023-02-15T08:58:56.936Z,18.83
2023-02-15T09:01:26.826Z,20.23
2023-02-15T09:04:03.099Z,19.33
2023-02-15T09:06:31.109Z,19.80
2023-02-15T09:08:58.914Z,16.63
2023-02-15T09:11:28.285Z,16.23
2023-02-15T09:13:58.771Z,19.23
2023-02-15T09:16:29.575Z,18.70
2023-02-15T09:18:58.864Z,19.47
2023-02-15T09:21:27.981Z,19.73
2023-02-15T09:23:58.662Z,17.93
2023-02-15T09:26:26.781Z,19.60
2023-02-15T09:28:56.843Z,19.97
2023-02-15T09:31:27.966Z,18.27
2023-02-15T09:33:56.281Z,21.10
2023-02-15T09:36:25.852Z,19.00
2023-02-15T09:38:58.459Z,18.87
2023-02-15T09:41:57.786Z,18.60
2023-02-15T09:44:36.570Z,18.77
2023-02-15T09:47:23.511Z,16.60
2023-02-15T09:50:01.010Z,19.57
2023-02-15T09:52:41.190Z,20.53
2023-02-15T09:55:30.895Z,23.40
2023-02-15T09:58:09.945Z,18.90
2023-02-15T10:00:48.956Z,19.77
2023-02-15T10:03:35.747Z,21.30
2023-02-15T10:06:25.508Z,17.40
2023-02-15T10:09:05.321Z,17.50
2023-02-15T10:11:46.285Z,20.10
2023-02-15T10:14:40.219Z,22.07
2023-02-15T10:17:22.062Z,21.47
2023-02-15T10:20:05.706Z,23.53
2023-02-15T10:22:50.082Z,20.83
2023-02-15T10:25:34.224Z,21.47
2023-02-15T10:28:07.467Z,22.63
2023-02-15T10:30:44.698Z,19.87
2023-02-15T10:33:23.454Z,17.53
2023-02-15T10:35:57.525Z,22.97
2023-02-15T10:38:35.705Z,21.20
2023-02-15T10:41:15.353Z,23.10
2023-02-15T10:43:53.488Z,22.27
2023-02-15T10:46:37.995Z,23.70
2023-02-15T10:49:28.168Z,21.23
2023-02-15T10:52:15.798Z,22.93
2023-02-15T10:54:50.894Z,22.23
2023-02-15T10:57:25.866Z,22.33
2023-02-15T11:00:05.223Z,26.73
2023-02-15T11:02:47.743Z,24.50
2023-02-15T11:05:36.422Z,27.00
2023-02-15T11:08:10.439Z,27.23
2023-02-15T11:10:41.617Z,25.80
2023-02-15T11:13:13.786Z,27.60
2023-02-15T11:15:46.867Z,27.53
2023-02-15T11:18:21.123Z,28.47
2023-02-15T11:20:56.643Z,27.77
2023-02-15T11:23:28.379Z,25.97
2023-02-15T11:25:59.873Z,28.20
2023-02-15T11:28:33.856Z,25.43
2023-02-15T11:31:13.356Z,27.93
2023-02-15T11:33:46.555Z,27.57
2023-02-15T11:36:18.206Z,26.57
2023-02-15T11:38:50.588Z,29.07
2023-02-15T11:41:24.886Z,28.87
2023-02-15T11:43:58.937Z,27.83
2023-02-15T11:46:26.988Z,28.60
2023-02-15T11:48:54.826Z,28.70
2023-02-15T11:51:24.602Z,28.53
2023-02-15T11:53:54.081Z,25.37
2023-02-15T11:56:24.328Z,28.93
2023-02-15T11:58:57.815Z,27.80
2023-02-15T12:01:32.808Z,28.13
2023-02-15T12:04:06.159Z,29.83
2023-02-15T12:06:36.200Z,28.47
2023-02-15T12:09:15.273Z,30.70
2023-02-15T12:11:43.689Z,27.70
2023-02-15T12:14:16.709Z,28.30
2023-02-15T12:16:49.110Z,27.37
2023-02-15T12:19:38.985Z,29.33
2023-02-15T12:22:10.193Z,29.30
2023-02-15T12:24:47.691Z,30.47
2023-02-15T12:27:18.633Z,28.27
2023-02-15T12:29:51.117Z,27.90
2023-02-15T12:32:21.807Z,28.43
2023-02-15T12:34:51.187Z,28.33
2023-02-15T12:37:21.801Z,27.33
2023-02-15T12:39:56.637Z,28.77
2023-02-15T12:42:25.417Z,28.23
2023-02-15T12:44:59.559Z,28.20
2023-02-15T12:47:29.624Z,29.67
2023-02-15T12:50:21.620Z,25.60
2023-02-15T12:52:51.682Z,29.27
2023-02-15T12:55:27.448Z,25.57
2023-02-15T12:58:08.889Z,26.60
2023-02-15T13:00:36.753Z,26.03
2023-02-15T13:03:05.692Z,27.77
2023-02-15T13:05:38.038Z,26.77
2023-02-15T13:08:13.354Z,27.97
2023-02-15T13:10:54.032Z,24.83
2023-02-15T13:13:24.557Z,26.60
2023-02-15T13:15:54.172Z,27.07
2023-02-15T13:18:35.164Z,24.93
2023-02-15T13:21:08.483Z,26.23
2023-02-15T13:23:36.543Z,27.30
2023-02-15T13:26:11.591Z,25.07
2023-02-15T13:28:42.618Z,21.73
2023-02-15T13:31:16.165Z,24.67
2023-02-15T13:33:48.760Z,23.93
2023-02-15T13:36:25.724Z,24.80
2023-02-15T13:39:11.738Z,28.83
2023-02-15T13:41:53.198Z,26.63
2023-02-15T13:44:30.138Z,25.67
2023-02-15T13:47:16.120Z,23.50
2023-02-15T13:49:56.788Z,26.63
2023-02-15T13:52:26.492Z,25.73
2023-02-15T13:55:31.614Z,24.87
2023-02-15T13:58:24.734Z,25.47
2023-02-15T14:01:02.167Z,25.17
2023-02-15T14:03:50.895Z,26.07
2023-02-15T14:06:36.630Z,25.87
2023-02-15T14:09:17.292Z,25.97
2023-02-15T14:11:52.842Z,25.40
2023-02-15T14:14:41.022Z,24.80
2023-02-15T14:17:17.096Z,25.70
2023-02-15T14:19:51.036Z,28.20
2023-02-15T14:22:28.167Z,25.00
2023-02-15T14:25:11.471Z,23.63
2023-02-15T14:27:53.173Z,22.00
2023-02-15T14:30:25.636Z,24.07
2023-02-15T14:32:56.782Z,23.63
2023-02-15T14:35:29.131Z,23.13
2023-02-15T14:38:06.125Z,23.47
2023-02-15T14:40:59.910Z,23.67
2023-02-15T14:43:37.761Z,20.47
2023-02-15T14:46:18.756Z,20.57
2023-02-15T14:48:50.302Z,20.67
2023-02-15T14:51:59.824Z,21.73
2023-02-15T14:54:57.232Z,21.07
2023-02-15T14:57:36.771Z,20.13
2023-02-15T15:00:41.181Z,17.03
2023-02-15T15:03:25.499Z,21.93
2023-02-15T15:05:56.006Z,21.57
2023-02-15T15:08:30.500Z,23.07
2023-02-15T15:10:58.264Z,21.33
2023-02-15T15:13:53.500Z,23.33
2023-02-15T15:16:51.709Z,20.50
2023-02-15T15:20:05.193Z,23.20
2023-02-15T15:22:36.471Z,22.03
2023-02-15T15:25:05.772Z,21.70
2023-02-15T15:27:54.903Z,21.20
2023-02-15T15:30:49.005Z,21.83
2023-02-15T15:33:41.822Z,21.07
2023-02-15T15:36:36.099Z,21.47
2023-02-15T15:39:21.456Z,23.63
2023-02-15T15:41:57.984Z,21.67
2023-02-15T15:45:05.349Z,21.37
2023-02-15T15:48:07.355Z,23.03
2023-02-15T15:50:36.151Z,23.53
2023-02-15T15:53:05.266Z,22.00
2023-02-15T15:55:36.530Z,25.33
2023-02-15T15:58:08.045Z,23.47
2023-02-15T16:00:40.205Z,21.60
2023-02-15T16:03:07.958Z,21.20
2023-02-15T16:05:39.842Z,24.30
2023-02-15T16:08:08.067Z,25.53
2023-02-15T16:10:38.956Z,20.63
2023-02-15T16:13:08.425Z,22.33
2023-02-15T16:15:45.323Z,20.10
2023-02-15T16:18:17.699Z,22.53
2023-02-15T16:20:52.943Z,22.23
2023-02-15T16:23:39.219Z,22.47
2023-02-15T16:26:16.750Z,25.00
2023-02-15T16:28:51.075Z,23.00
2023-02-15T16:31:19.378Z,23.30
2023-02-15T16:33:48.210Z,21.20
2023-02-15T16:36:23.638Z,22.77
2023-02-15T16:39:10.862Z,25.20
2023-02-15T16:41:40.423Z,22.87
2023-02-15T16:44:14.055Z,22.27
2023-02-15T16:46:45.842Z,22.43
2023-02-15T16:49:19.319Z,24.40
2023-02-15T16:51:55.647Z,22.37
2023-02-15T16:54:25.027Z,24.53
2023-02-15T16:56:54.457Z,23.33
2023-02-15T16:59:34.712Z,23.90
2023-02-15T17:02:06.308Z,24.60
2023-02-15T17:04:35.547Z,23.00
2023-02-15T17:07:06.754Z,22.60
2023-02-15T17:09:35.920Z,24.53
2023-02-15T17:12:12.054Z,24.50
2023-02-15T17:14:41.741Z,25.50
2023-02-15T17:17:14.544Z,24.23
2023-02-15T17:19:50.814Z,22.97
2023-02-15T17:22:22.419Z,24.10
2023-02-15T17:24:52.280Z,25.53
2023-02-15T17:27:25.840Z,25.27
2023-02-15T17:29:57.593Z,24.80
2023-02-15T17:32:28.001Z,25.07
2023-02-15T17:35:11.132Z,26.80
2023-02-15T17:37:47.310Z,28.20
2023-02-15T17:40:24.956Z,23.97
2023-02-15T17:42:54.785Z,24.10
2023-02-15T17:45:23.702Z,24.97
2023-02-15T17:47:52.097Z,25.97
2023-02-15T17:50:23.755Z,25.60
2023-02-15T17:52:52.661Z,24.43
2023-02-15T17:55:39.162Z,28.93
2023-02-15T17:58:11.260Z,24.83
2023-02-15T18:01:00.570Z,23.70
2023-02-15T18:03:57.754Z,24.37
2023-02-15T18:06:43.579Z,25.77
2023-02-15T18:09:30.323Z,23.43
2023-02-15T18:11:58.453Z,23.83
2023-02-15T18:14:27.670Z,26.03
2023-02-15T18:16:56.317Z,22.60
2023-02-15T18:19:27.069Z,24.43
2023-02-15T18:21:57.618Z,25.00
2023-02-15T18:24:27.732Z,26.70
2023-02-15T18:26:56.153Z,21.93
2023-02-15T18:29:23.886Z,23.87
2023-02-15T18:31:56.924Z,25.43
2023-02-15T18:34:28.490Z,25.50
2023-02-15T18:36:57.649Z,21.10
2023-02-15T18:39:30.754Z,19.90
2023-02-15T18:41:58.906Z,22.93
2023-02-15T18:44:27.279Z,26.33
2023-02-15T18:46:56.365Z,21.33
2023-02-15T18:49:24.388Z,25.20
2023-02-15T18:51:53.604Z,23.10
2023-02-15T18:54:24.153Z,22.77
2023-02-15T18:56:56.097Z,24.97
2023-02-15T18:59:24.932Z,26.23
2023-02-15T19:01:53.065Z,22.83
2023-02-15T19:04:24.217Z,23.47
2023-02-15T19:06:53.472Z,22.23
2023-02-15T19:09:23.605Z,21.53
2023-02-15T19:11:54.440Z,20.90
2023-02-15T19:14:27.163Z,23.77
2023-02-15T19:16:55.507Z,24.27
2023-02-15T19:19:25.265Z,22.50
2023-02-15T19:21:53.446Z,23.43
2023-02-15T19:24:25.204Z,26.13
2023-02-15T19:26:53.445Z,20.60
2023-02-15T19:29:26.928Z,26.43
2023-02-15T19:31:55.046Z,20.80
2023-02-15T19:34:24.213Z,22.40
2023-02-15T19:36:56.557Z,23.73
2023-02-15T19:39:27.201Z,25.03
2023-02-15T19:41:55.050Z,23.50
2023-02-15T19:44:23.169Z,24.23
2023-02-15T19:46:51.465Z,22.23
2023-02-15T19:49:19.437Z,24.80
2023-02-15T19:51:48.746Z,24.97
2023-02-15T19:54:29.531Z,25.80
2023-02-15T19:56:57.469Z,27.33
2023-02-15T19:59:27.089Z,25.50
2023-02-15T20:01:55.290Z,24.90
2023-02-15T20:04:23.223Z,24.90
2023-02-15T20:06:55.170Z,27.37
2023-02-15T20:09:25.595Z,25.20
2023-02-15T20:11:54.156Z,28.50
2023-02-15T20:14:22.793Z,23.23
2023-02-15T20:16:51.406Z,25.73
2023-02-15T20:19:19.109Z,28.40
2023-02-15T20:21:51.735Z,26.30
2023-02-15T20:24:23.500Z,23.40
2023-02-15T20:26:51.252Z,25.83
2023-02-15T20:29:20.060Z,26.67
2023-02-15T20:31:47.914Z,26.23
2023-02-15T20:34:15.736Z,25.57
2023-02-15T20:36:43.448Z,27.10
2023-02-15T20:39:16.572Z,26.63
2023-02-15T20:41:48.258Z,27.07
2023-02-15T20:44:20.482Z,23.63
2023-02-15T20:46:50.289Z,22.57
2023-02-15T20:49:18.107Z,26.60
2023-02-15T20:51:47.415Z,25.77
2023-02-15T20:54:17.791Z,27.60
2023-02-15T20:56:47.749Z,24.33
2023-02-15T20:59:23.130Z,23.73
2023-02-15T21:01:52.836Z,24.67
2023-02-15T21:04:25.833Z,25.37
2023-02-15T21:06:53.647Z,24.17
2023-02-15T21:09:21.466Z,23.83
2023-02-15T21:11:53.196Z,26.47
2023-02-15T21:14:22.685Z,25.93
2023-02-15T21:16:53.373Z,26.37
2023-02-15T21:19:22.857Z,23.97
2023-02-15T21:21:53.328Z,26.13
2023-02-15T21:24:24.195Z,22.80
2023-02-15T21:26:54.320Z,23.13
2023-02-15T21:29:23.955Z,22.77
2023-02-15T21:31:51.859Z,23.90
2023-02-15T21:34:21.796Z,23.97
2023-02-15T21:36:51.068Z,23.63
2023-02-15T21:39:21.836Z,24.57
2023-02-15T21:42:09.188Z,22.77
2023-02-15T21:45:04.278Z,25.60
2023-02-15T21:47:50.241Z,23.87
2023-02-15T21:50:33.527Z,24.13
2023-02-15T21:53:04.187Z,22.37
2023-02-15T21:55:34.587Z,23.70
2023-02-15T21:58:03.034Z,20.73
2023-02-15T22:00:35.220Z,19.53
2023-02-15T22:03:05.089Z,23.67
2023-02-15T22:05:35.001Z,17.73
2023-02-15T22:08:02.726Z,21.83
2023-02-15T22:10:32.597Z,25.27
2023-02-15T22:13:01.585Z,20.87
2023-02-15T22:15:35.642Z,21.37
2023-02-15T22:18:03.570Z,21.60
2023-02-15T22:20:31.355Z,23.73
2023-02-15T22:22:59.117Z,23.90
2023-02-15T22:25:27.734Z,20.87
2023-02-15T22:27:56.540Z,22.07
2023-02-15T22:30:27.781Z,19.60
2023-02-15T22:32:58.318Z,17.00
2023-02-15T22:35:27.793Z,19.97
2023-02-15T22:37:56.158Z,22.40
2023-02-15T22:40:28.869Z,19.40
2023-02-15T22:42:58.008Z,22.73
2023-02-15T22:45:28.051Z,18.40
2023-02-15T22:47:59.970Z,22.47
2023-02-15T22:50:30.922Z,19.30
2023-02-15T22:53:00.858Z,21.37
2023-02-15T22:55:33.231Z,22.63
2023-02-15T22:58:01.617Z,21.07
2023-02-15T23:00:32.453Z,23.67
2023-02-15T23:03:02.412Z,22.97
2023-02-15T23:05:31.883Z,21.50
2023-02-15T23:07:59.658Z,24.43
2023-02-15T23:10:29.887Z,20.27
2023-02-15T23:13:16.729Z,22.90
2023-02-15T23:15:48.727Z,24.00
2023-02-15T23:18:21.199Z,24.70
2023-02-15T23:20:51.960Z,23.10
2023-02-15T23:23:25.434Z,22.50
2023-02-15T23:25:53.153Z,22.47
2023-02-15T23:28:25.040Z,21.70
2023-02-15T23:30:53.037Z,22.17
2023-02-15T23:33:24.811Z,21.03
2023-02-15T23:35:52.626Z,21.63
2023-02-15T23:38:23.212Z,21.53
2023-02-15T23:41:11.781Z,21.40
2023-02-15T23:43:42.019Z,22.07
2023-02-15T23:46:09.850Z,21.17
2023-02-15T23:48:40.329Z,22.27
2023-02-15T23:51:08.117Z,24.33
2023-02-15T23:53:35.834Z,24.83
2023-02-15T23:56:03.814Z,24.07
2023-02-15T23:58:37.213Z,21.90
